Time;durP1;ratioP1;P1;durP2;ratioP2;P2;SDS_P1;SDS_P2;PMS_P1;PMS_P2;Temp;Humidity;BMP_temperature;BMP_pressure;BME280_temperature;BME280_humidity;BME280_pressure;Samples;Min_cycle;Max_cycle;Signal;HPM_P1;HPM_P2
2022/10/28 06:20:18;;;;;;;2.73;1.53;;;11.90;99.90;;;;;;5130438;27;20291;-87
2022/10/28 06:22:51;;;;;;;3.80;1.57;;;12.10;99.90;;;;;;5103480;28;20211;-87
2022/10/28 06:25:18;;;;;;;3.23;1.30;;;;;;;;;;5116845;28;20177;-84
2022/10/28 06:27:44;;;;;;;6.37;1.77;;;;;;;;;;5104592;28;20179;-86
2022/10/28 06:30:10;;;;;;;6.43;1.60;;;;;;;;;;5096114;28;20626;-85
2022/10/28 06:32:36;;;;;;;3.67;1.50;;;;;;;;;;5094458;28;20212;-87
2022/10/28 06:35:03;;;;;;;5.43;1.30;;;;;;;;;;5092310;28;20210;-86
2022/10/28 06:38:48;;;;;;;3.13;1.80;;;;;;;;;;5134296;27;20779;-86
2022/10/28 06:42:55;;;;;;;4.67;1.70;;;12.40;99.90;;;;;;5134032;27;20288;-86
2022/10/28 06:46:49;;;;;;;2.23;1.27;;;12.00;99.90;;;;;;5135292;27;20272;-85
2022/10/28 06:50:49;;;;;;;2.97;1.60;;;12.60;99.90;;;;;;5135435;27;20697;-86
2022/10/28 06:54:49;;;;;;;6.43;1.90;;;12.70;99.90;;;;;;5137349;27;20276;-86
2022/10/28 06:57:15;;;;;;;3.97;1.47;;;;;;;;;;5136897;28;20254;-85
2022/10/28 06:59:41;;;;;;;4.17;1.33;;;13.10;99.90;;;;;;5116264;28;20224;-85
2022/10/28 07:02:12;;;;;;;2.33;1.10;;;13.00;99.90;;;;;;5125060;28;20195;-85
2022/10/28 07:04:38;;;;;;;7.00;1.37;;;;;;;;;;5134185;28;20187;-84
2022/10/28 07:07:04;;;;;;;3.77;1.27;;;13.10;99.90;;;;;;5134856;28;20261;-87
2022/10/28 07:09:29;;;;;;;4.87;1.50;;;13.30;99.90;;;;;;5133297;28;20179;-85
2022/10/28 07:11:55;;;;;;;6.80;1.40;;;;;;;;;;5133791;27;20223;-85
2022/10/28 07:14:21;;;;;;;6.07;1.50;;;13.50;99.90;;;;;;5134049;28;20240;-85
2022/10/28 07:16:47;;;;;;;2.00;0.97;;;13.70;99.90;;;;;;5132148;28;20300;-84
2022/10/28 07:19:13;;;;;;;5.53;1.83;;;;;;;;;;5133571;27;20240;-85
2022/10/28 07:21:38;;;;;;;4.97;1.40;;;14.10;99.90;;;;;;5134022;28;20191;-86
2022/10/28 07:24:04;;;;;;;9.80;1.50;;;14.20;99.90;;;;;;5133035;27;20628;-84
2022/10/28 07:26:30;;;;;;;6.97;1.10;;;14.30;99.90;;;;;;5131711;28;20187;-85
2022/10/28 07:28:56;;;;;;;7.63;1.30;;;14.70;99.90;;;;;;5131651;28;20183;-86
2022/10/28 07:31:22;;;;;;;8.87;1.50;;;;;;;;;;5131416;28;20206;-85
2022/10/28 07:33:54;;;;;;;4.60;1.30;;;14.70;99.90;;;;;;5132219;28;20664;-86
2022/10/28 07:36:20;;;;;;;2.70;1.30;;;14.80;99.90;;;;;;5132673;28;20227;-85
2022/10/28 07:38:50;;;;;;;3.83;1.00;;;14.80;99.90;;;;;;5132519;28;20179;-84
2022/10/28 07:41:18;;;;;;;2.83;1.20;;;14.90;99.90;;;;;;5133783;27;20204;-87
2022/10/28 07:43:44;;;;;;;6.60;1.20;;;15.00;99.90;;;;;;5131627;28;20179;-86
2022/10/28 07:46:09;;;;;;;6.47;1.13;;;15.00;99.90;;;;;;5132657;27;20181;-84
2022/10/28 07:48:36;;;;;;;2.60;1.10;;;15.00;99.90;;;;;;5132036;27;20206;-85
2022/10/28 07:51:04;;;;;;;4.13;1.20;;;15.30;99.90;;;;;;5131042;28;20238;-84
2022/10/28 07:53:30;;;;;;;5.50;1.17;;;15.30;99.90;;;;;;5131808;27;20305;-84
2022/10/28 07:55:57;;;;;;;3.37;0.97;;;15.50;99.90;;;;;;5131685;28;20178;-86
2022/10/28 07:58:23;;;;;;;4.53;1.17;;;15.70;99.90;;;;;;5133032;27;20171;-83
2022/10/28 08:00:49;;;;;;;3.40;1.20;;;16.20;99.90;;;;;;5133231;27;20169;-84
2022/10/28 08:03:15;;;;;;;9.33;1.43;;;16.20;99.90;;;;;;5132339;28;20651;-84
2022/10/28 08:05:40;;;;;;;3.10;1.30;;;16.20;99.90;;;;;;5121247;28;20184;-85
2022/10/28 08:08:06;;;;;;;3.03;1.20;;;;;;;;;;5118154;28;20181;-85
2022/10/28 08:10:32;;;;;;;3.70;1.43;;;16.30;99.90;;;;;;5119695;28;20714;-84
2022/10/28 08:12:59;;;;;;;4.13;1.10;;;16.40;99.90;;;;;;5119551;28;20195;-84
2022/10/28 08:15:25;;;;;;;7.07;1.43;;;16.40;99.90;;;;;;5118054;28;20181;-84
2022/10/28 08:17:52;;;;;;;3.87;1.30;;;16.50;99.90;;;;;;5119245;28;20243;-82
2022/10/28 08:20:18;;;;;;;5.07;1.50;;;16.50;99.90;;;;;;5119253;28;20168;-84
2022/10/28 08:22:44;;;;;;;3.43;1.20;;;16.50;99.90;;;;;;5119187;28;20223;-85
2022/10/28 08:25:10;;;;;;;2.47;1.17;;;;;;;;;;5125897;27;20204;-84
2022/10/28 08:27:36;;;;;;;6.23;1.43;;;16.60;99.90;;;;;;5121606;28;20176;-84
2022/10/28 08:30:02;;;;;;;3.40;1.20;;;;;;;;;;5121611;28;20176;-84
2022/10/28 08:32:28;;;;;;;8.27;1.60;;;17.40;99.90;;;;;;5121338;28;20193;-85
2022/10/28 08:34:53;;;;;;;4.30;1.93;;;17.70;99.90;;;;;;5120246;28;20187;-84
2022/10/28 08:37:19;;;;;;;3.63;1.40;;;;;;;;;;5120193;28;20606;-84
2022/10/28 08:39:45;;;;;;;2.70;1.20;;;;;;;;;;5121966;28;20675;-81
2022/10/28 08:42:38;;;;;;;6.27;1.30;;;18.00;99.90;;;;;;5120881;28;20212;-82
2022/10/28 08:45:13;;;;;;;2.63;1.20;;;18.50;99.90;;;;;;5118861;28;20185;-82
2022/10/28 08:48:03;;;;;;;6.40;2.30;;;19.00;99.90;;;;;;5121477;28;20533;-84
2022/10/28 08:50:32;;;;;;;7.60;1.90;;;19.30;99.90;;;;;;5118632;28;20533;-85
2022/10/28 08:53:36;;;;;;;4.17;1.67;;;20.00;99.90;;;;;;5118228;28;20222;-86
2022/10/28 08:56:24;;;;;;;5.83;1.70;;;20.40;99.90;;;;;;5119880;28;20175;-84
2022/10/28 08:58:53;;;;;;;6.13;1.70;;;20.70;99.90;;;;;;5118427;28;20175;-86
2022/10/28 09:01:41;;;;;;;5.97;1.40;;;20.10;99.90;;;;;;5118276;28;20192;-85
2022/10/28 09:04:21;;;;;;;3.87;1.50;;;20.00;99.90;;;;;;5118432;28;20190;-84
2022/10/28 09:06:46;;;;;;;5.23;1.70;;;19.90;99.90;;;;;;5118366;28;20536;-84
2022/10/28 09:09:19;;;;;;;4.77;1.57;;;19.60;99.90;;;;;;5118067;28;20187;-83
2022/10/28 09:11:45;;;;;;;1.57;1.30;;;19.40;99.90;;;;;;5119601;28;20653;-83
2022/10/28 09:14:22;;;;;;;3.30;1.40;;;19.40;99.90;;;;;;5118796;28;20195;-83
2022/10/28 09:16:54;;;;;;;4.10;1.37;;;19.40;99.90;;;;;;5118031;28;20171;-84
2022/10/28 09:19:31;;;;;;;5.13;1.60;;;19.70;99.90;;;;;;5117454;28;20177;-84
2022/10/28 09:22:06;;;;;;;2.53;1.70;;;20.30;99.90;;;;;;5117374;28;20191;-83
2022/10/28 09:24:53;;;;;;;2.63;1.73;;;20.70;99.90;;;;;;5117347;28;20314;-84
2022/10/28 09:28:05;;;;;;;8.47;1.80;;;20.70;99.90;;;;;;5117404;28;20187;-84
2022/10/28 09:30:33;;;;;;;5.60;1.57;;;21.00;99.90;;;;;;5058538;28;20275;-83
2022/10/28 09:33:33;;;;;;;5.40;1.73;;;21.00;99.90;;;;;;5113205;28;20215;-84
2022/10/28 09:36:00;;;;;;;6.00;1.63;;;21.30;99.90;;;;;;5116922;28;20583;-83
2022/10/28 09:38:34;;;;;;;4.40;1.20;;;21.50;99.90;;;;;;5119489;28;20254;-83
2022/10/28 09:41:10;;;;;;;4.70;1.77;;;21.90;99.90;;;;;;5123965;28;20171;-87
2022/10/28 09:43:46;;;;;;;2.70;1.30;;;22.00;99.90;;;;;;5118950;28;20179;-84
2022/10/28 09:46:15;;;;;;;4.17;1.40;;;22.80;99.90;;;;;;5118738;28;20186;-87
2022/10/28 09:48:50;;;;;;;2.10;1.30;;;23.40;99.90;;;;;;5119773;28;20209;-84
2022/10/28 09:51:42;;;;;;;3.17;1.47;;;24.30;99.90;;;;;;5118432;28;20712;-84
2022/10/28 09:54:09;;;;;;;4.27;1.53;;;24.40;99.90;;;;;;5113727;28;20215;-83
2022/10/28 09:56:36;;;;;;;5.60;1.20;;;25.00;99.60;;;;;;5119546;28;20184;-83
2022/10/28 09:59:02;;;;;;;4.60;1.23;;;24.90;99.60;;;;;;5118384;28;20208;-84
2022/10/28 10:01:42;;;;;;;4.20;1.30;;;24.90;99.10;;;;;;5117918;28;20199;-82
2022/10/28 10:04:34;;;;;;;3.80;1.50;;;25.20;99.90;;;;;;5118444;28;20212;-83
2022/10/28 10:07:10;;;;;;;1.33;0.97;;;25.60;98.00;;;;;;5118775;28;20180;-83
2022/10/28 10:09:37;;;;;;;4.07;1.60;;;25.70;98.10;;;;;;5118516;28;20591;-83
2022/10/28 10:12:08;;;;;;;3.07;1.27;;;25.20;96.70;;;;;;5119594;28;20196;-83
2022/10/28 10:14:49;;;;;;;4.97;1.27;;;25.10;97.20;;;;;;5120888;28;20533;-83
2022/10/28 10:17:19;;;;;;;4.70;1.80;;;24.90;97.30;;;;;;5120155;28;20235;-86
2022/10/28 10:20:06;;;;;;;8.57;1.57;;;24.70;96.80;;;;;;5121374;28;20181;-84
2022/10/28 10:22:32;;;;;;;2.43;1.07;;;24.30;97.70;;;;;;5120388;28;20205;-84
2022/10/28 10:24:58;;;;;;;3.37;1.40;;;24.40;98.10;;;;;;5120637;28;20169;-83
2022/10/28 10:27:25;;;;;;;5.73;1.80;;;24.00;97.00;;;;;;5120459;28;20501;-86
2022/10/28 10:29:52;;;;;;;2.37;1.20;;;23.60;97.00;;;;;;5125003;28;20187;-85
2022/10/28 10:32:24;;;;;;;4.30;1.40;;;23.10;97.10;;;;;;5120927;28;20184;-84
2022/10/28 10:35:33;;;;;;;3.33;1.07;;;23.10;97.40;;;;;;5120046;28;20196;-87
2022/10/28 10:38:01;;;;;;;3.00;1.20;;;23.10;98.60;;;;;;5062193;28;20181;-86
2022/10/28 10:40:38;;;;;;;3.77;1.40;;;23.50;97.70;;;;;;5112605;28;20184;-85
2022/10/28 10:43:33;;;;;;;3.60;1.47;;;24.20;97.50;;;;;;5121608;28;20219;-86
2022/10/28 10:46:03;;;;;;;7.43;1.60;;;25.10;96.30;;;;;;5107698;28;20183;-85
2022/10/28 10:48:32;;;;;;;2.27;1.03;;;25.40;95.90;;;;;;5120654;28;20178;-85
2022/10/28 10:51:10;;;;;;;6.83;1.50;;;26.20;94.30;;;;;;5119464;28;20266;-86
2022/10/28 10:53:38;;;;;;;4.17;2.07;;;26.20;94.40;;;;;;5133623;28;20211;-83
2022/10/28 10:56:08;;;;;;;4.43;1.57;;;26.60;93.10;;;;;;5118886;28;20519;-84
2022/10/28 10:58:55;;;;;;;7.20;1.40;;;27.40;92.50;;;;;;5118241;28;20178;-85
2022/10/28 11:01:35;;;;;;;7.47;1.90;;;27.90;91.20;;;;;;5120384;28;20215;-85
2022/10/28 11:04:07;;;;;;;5.50;2.07;;;27.10;89.50;;;;;;5118885;28;20180;-83
2022/10/28 11:06:42;;;;;;;6.07;2.10;;;27.10;90.10;;;;;;5120800;28;20159;-85
2022/10/28 11:09:21;;;;;;;4.47;1.60;;;27.10;92.70;;;;;;5119372;28;20581;-85
2022/10/28 11:11:47;;;;;;;6.17;1.80;;;;;;;;;;5120887;28;20267;-85
2022/10/28 11:14:13;;;;;;;4.60;1.97;;;28.10;88.00;;;;;;5119123;28;20267;-84
2022/10/28 11:16:53;;;;;;;7.83;2.23;;;27.60;85.10;;;;;;5120758;28;20171;-86
2022/10/28 11:19:30;;;;;;;4.07;1.90;;;27.40;86.50;;;;;;5119240;28;20617;-85
2022/10/28 11:22:05;;;;;;;4.53;1.87;;;26.60;87.60;;;;;;5119416;28;20191;-85
2022/10/28 11:25:21;;;;;;;3.73;2.23;;;26.60;88.20;;;;;;5120072;28;20163;-83
2022/10/28 11:28:01;;;;;;;3.20;1.77;;;27.40;87.80;;;;;;5103616;28;20184;-84
2022/10/28 11:30:45;;;;;;;6.27;4.03;;;27.70;90.00;;;;;;5122154;28;20174;-85
2022/10/28 11:33:18;;;;;;;4.23;1.43;;;28.50;85.30;;;;;;5120934;28;20619;-86
2022/10/28 11:35:46;;;;;;;4.40;1.07;;;28.70;85.50;;;;;;5121191;28;20164;-85
2022/10/28 11:38:30;;;;;;;7.60;4.63;;;28.50;87.00;;;;;;5119342;28;20172;-85
2022/10/28 11:41:18;;;;;;;4.27;1.77;;;28.30;84.30;;;;;;5122491;28;20168;-85
2022/10/28 11:44:17;;;;;;;4.20;2.30;;;28.20;84.10;;;;;;5124514;28;20534;-85
2022/10/28 11:46:49;;;;;;;6.60;3.70;;;28.10;85.50;;;;;;5125954;27;20172;-83
2022/10/28 11:49:49;;;;;;;5.17;3.60;;;28.90;80.70;;;;;;5122563;28;20163;-84
2022/10/28 11:52:30;;;;;;;6.47;2.20;;;28.90;85.70;;;;;;5124984;28;20278;-83
2022/10/28 11:55:20;;;;;;;3.80;1.57;;;29.40;84.20;;;;;;5122022;28;20180;-83
2022/10/28 11:57:46;;;;;;;7.30;1.50;;;29.60;79.60;;;;;;5122025;28;20655;-83
2022/10/28 12:00:30;;;;;;;5.90;1.40;;;29.90;84.60;;;;;;5123844;28;20247;-84
2022/10/28 12:03:14;;;;;;;6.17;1.10;;;30.30;75.20;;;;;;5124997;28;20192;-84
2022/10/28 12:05:46;;;;;;;4.37;1.50;;;30.60;74.00;;;;;;5125353;28;20606;-85
2022/10/28 12:08:17;;;;;;;3.33;1.70;;;30.10;74.40;;;;;;5124124;28;20240;-83
2022/10/28 12:11:13;;;;;;;5.10;1.57;;;30.60;74.80;;;;;;5123099;28;20190;-83
2022/10/28 12:14:15;;;;;;;5.87;1.50;;;30.40;75.20;;;;;;5121469;28;20241;-82
2022/10/28 12:16:41;;;;;;;7.77;1.70;;;30.30;77.00;;;;;;5121997;28;20244;-82
2022/10/28 12:19:28;;;;;;;4.50;1.47;;;29.50;75.10;;;;;;5120675;28;20562;-83
2022/10/28 12:22:22;;;;;;;6.23;2.17;;;28.60;78.00;;;;;;5120263;28;20228;-82
2022/10/28 12:24:50;;;;;;;3.27;1.30;;;28.30;82.20;;;;;;5120969;27;20179;-84
2022/10/28 12:27:18;;;;;;;12.60;1.47;;;28.00;81.10;;;;;;5120771;28;20193;-83
2022/10/28 12:29:48;;;;;;;6.47;1.50;;;28.90;79.20;;;;;;5121331;28;20180;-85
2022/10/28 12:32:21;;;;;;;2.33;1.43;;;29.00;74.90;;;;;;5119273;28;20669;-84
2022/10/28 12:34:56;;;;;;;5.43;1.77;;;28.90;79.50;;;;;;5121002;28;20197;-81
2022/10/28 12:38:09;;;;;;;4.20;1.60;;;28.90;77.30;;;;;;5121765;28;20157;-84
2022/10/28 12:40:43;;;;;;;5.63;1.43;;;29.40;78.10;;;;;;5089528;28;20183;-83
2022/10/28 12:43:23;;;;;;;4.73;1.30;;;30.30;74.80;;;;;;5119819;28;20574;-83
2022/10/28 12:45:51;;;;;;;5.10;1.17;;;31.20;72.60;;;;;;5121305;28;20235;-83
2022/10/28 12:48:45;;;;;;;3.50;1.70;;;31.40;70.60;;;;;;5120365;28;20182;-83
2022/10/28 12:51:22;;;;;;;10.33;2.20;;;31.30;74.70;;;;;;5118487;28;20200;-85
2022/10/28 12:54:15;;;;;;;9.67;2.23;;;31.30;72.00;;;;;;5118981;28;20254;-82
2022/10/28 12:56:55;;;;;;;8.90;2.43;;;31.70;74.00;;;;;;5119450;28;20251;-82
2022/10/28 12:59:42;;;;;;;9.13;3.00;;;32.60;69.20;;;;;;5118663;28;20312;-83
2022/10/28 13:02:20;;;;;;;8.03;1.70;;;32.40;69.70;;;;;;5120021;28;20200;-82
2022/10/28 13:04:46;;;;;;;5.43;2.27;;;32.40;69.70;;;;;;5119857;28;20258;-84
2022/10/28 13:07:39;;;;;;;17.10;4.10;;;32.70;61.20;;;;;;5118583;28;20187;-84
2022/10/28 13:10:23;;;;;;;16.03;3.47;;;32.60;71.40;;;;;;5118631;28;20175;-84
2022/10/28 13:13:06;;;;;;;4.33;2.00;;;31.70;65.50;;;;;;5119708;28;20205;-84
2022/10/28 13:15:53;;;;;;;9.33;3.40;;;30.90;62.20;;;;;;5119704;28;20169;-86
2022/10/28 13:18:37;;;;;;;11.23;2.97;;;29.80;73.00;;;;;;5118896;28;20168;-82
2022/10/28 13:21:43;;;;;;;12.50;2.10;;;28.70;69.20;;;;;;5120024;28;20185;-84
2022/10/28 13:24:21;;;;;;;9.50;2.03;;;29.10;74.40;;;;;;5101634;28;20187;-85
2022/10/28 13:26:47;;;;;;;5.53;1.63;;;29.20;78.40;;;;;;5119151;28;20546;-84
2022/10/28 13:29:23;;;;;;;7.00;2.10;;;29.10;77.40;;;;;;5119524;28;20203;-85
2022/10/28 13:31:50;;;;;;;5.57;1.90;;;27.20;85.30;;;;;;5118665;28;20196;-84
2022/10/28 13:34:20;;;;;;;7.87;1.70;;;26.60;89.40;;;;;;5118417;28;20204;-85
2022/10/28 13:36:55;;;;;;;7.77;1.90;;;26.50;90.00;;;;;;5120531;28;20171;-84
2022/10/28 13:39:24;;;;;;;8.40;1.63;;;25.90;92.70;;;;;;5118985;28;20507;-84
2022/10/28 13:42:12;;;;;;;11.10;2.10;;;26.20;94.30;;;;;;5118825;28;20286;-83
2022/10/28 13:44:52;;;;;;;6.97;2.00;;;26.20;95.10;;;;;;5120773;28;20187;-83
2022/10/28 13:47:31;;;;;;;7.40;1.93;;;25.80;95.90;;;;;;5120877;28;20159;-84
2022/10/28 13:50:08;;;;;;;15.47;1.97;;;25.40;97.20;;;;;;5120307;28;20163;-85
2022/10/28 13:52:42;;;;;;;4.03;1.70;;;25.20;97.80;;;;;;5118938;28;20203;-85
2022/10/28 13:55:24;;;;;;;5.17;1.63;;;25.00;98.60;;;;;;5117736;28;20200;-84
2022/10/28 13:58:04;;;;;;;8.80;1.77;;;24.90;99.00;;;;;;5118466;28;20179;-83
2022/10/28 14:00:30;;;;;;;8.37;1.90;;;24.70;99.10;;;;;;5120596;28;20634;-83
2022/10/28 14:02:57;;;;;;;5.17;2.03;;;24.40;99.50;;;;;;5120306;28;20217;-83
2022/10/28 14:05:34;;;;;;;4.40;2.03;;;24.20;99.90;;;;;;5120979;28;20206;-84
2022/10/28 14:08:25;;;;;;;6.03;1.97;;;24.00;99.90;;;;;;5120286;28;20654;-82
2022/10/28 14:11:20;;;;;;;5.50;2.00;;;23.60;99.90;;;;;;5114857;28;20193;-84
2022/10/28 14:13:52;;;;;;;7.53;2.53;;;23.60;99.90;;;;;;5120124;28;20203;-83
2022/10/28 14:16:37;;;;;;;7.50;1.90;;;23.40;99.90;;;;;;5120066;28;20178;-84
2022/10/28 14:19:08;;;;;;;5.57;1.97;;;23.10;99.90;;;;;;5121388;28;20498;-85
2022/10/28 14:21:49;;;;;;;8.30;2.33;;;22.80;99.90;;;;;;5118821;28;20194;-84
2022/10/28 14:24:31;;;;;;;4.67;2.33;;;22.80;99.90;;;;;;5120787;28;20168;-83
2022/10/28 14:27:30;;;;;;;7.53;2.33;;;22.70;99.90;;;;;;5118070;28;20188;-84
2022/10/28 14:29:56;;;;;;;6.97;2.10;;;;;;;;;;5113565;28;20185;-84
2022/10/28 14:32:31;;;;;;;7.97;2.30;;;22.30;99.90;;;;;;5120329;28;20211;-83
2022/10/28 14:35:18;;;;;;;9.83;2.33;;;22.30;99.90;;;;;;5118016;28;20294;-85
2022/10/28 14:38:15;;;;;;;23.83;3.87;;;22.20;99.90;;;;;;5119024;28;20166;-84
2022/10/28 14:41:03;;;;;;;7.10;2.73;;;22.00;99.90;;;;;;5118012;28;20248;-84
2022/10/28 14:43:35;;;;;;;12.07;2.80;;;22.00;99.90;;;;;;5121239;28;20167;-84
2022/10/28 14:46:09;;;;;;;8.07;2.20;;;21.90;99.90;;;;;;5120437;28;20164;-83
2022/10/28 14:48:38;;;;;;;7.10;2.67;;;21.80;99.90;;;;;;5120821;28;20181;-82
2022/10/28 14:51:07;;;;;;;10.90;3.77;;;21.60;99.90;;;;;;5117278;28;20180;-86
2022/10/28 14:53:34;;;;;;;9.83;2.17;;;21.50;99.90;;;;;;5118499;28;20199;-83
2022/10/28 14:56:06;;;;;;;7.30;2.47;;;21.40;99.90;;;;;;5117748;28;20160;-84
2022/10/28 14:58:41;;;;;;;5.57;2.13;;;21.30;99.90;;;;;;5118718;28;20620;-84
2022/10/28 15:01:15;;;;;;;25.50;3.37;;;21.00;99.90;;;;;;5116226;28;20195;-84
2022/10/28 15:04:01;;;;;;;8.93;2.13;;;21.00;99.90;;;;;;5117225;28;20179;-83
2022/10/28 15:06:32;;;;;;;14.63;2.30;;;20.80;99.90;;;;;;5117373;28;20176;-86
2022/10/28 15:09:28;;;;;;;10.50;1.90;;;20.70;99.90;;;;;;5117033;28;20282;-85
2022/10/28 15:12:05;;;;;;;7.37;2.17;;;20.60;99.90;;;;;;5115836;28;20202;-86
2022/10/28 15:14:44;;;;;;;16.53;3.07;;;20.60;99.90;;;;;;5119300;28;20187;-85
2022/10/28 15:17:19;;;;;;;13.27;2.70;;;20.50;99.90;;;;;;5120180;28;20214;-86
2022/10/28 15:19:47;;;;;;;6.60;2.70;;;20.40;99.90;;;;;;5120746;28;20197;-83
2022/10/28 15:22:24;;;;;;;7.43;2.10;;;20.30;99.90;;;;;;5120613;28;20634;-84
2022/10/28 15:24:54;;;;;;;14.47;2.80;;;20.20;99.90;;;;;;5121035;28;20166;-86
2022/10/28 15:27:21;;;;;;;6.90;2.07;;;20.10;99.90;;;;;;5122208;28;20171;-85
2022/10/28 15:29:48;;;;;;;12.10;2.53;;;20.10;99.90;;;;;;5122501;28;20669;-85
2022/10/28 15:32:25;;;;;;;25.27;3.20;;;20.00;99.90;;;;;;5120955;28;20205;-86
2022/10/28 15:34:51;;;;;;;15.10;2.43;;;20.00;99.90;;;;;;5122368;28;20191;-85
2022/10/28 15:37:20;;;;;;;6.70;2.40;;;20.00;99.90;;;;;;5121088;28;20180;-84
2022/10/28 15:39:49;;;;;;;12.60;2.90;;;19.90;99.90;;;;;;5120181;28;20708;-84
2022/10/28 15:42:38;;;;;;;21.03;3.30;;;19.80;99.90;;;;;;5120703;28;20266;-85
2022/10/28 15:45:05;;;;;;;7.80;2.53;;;19.80;99.90;;;;;;5121886;28;20154;-85
2022/10/28 15:47:33;;;;;;;13.97;3.23;;;19.70;99.90;;;;;;5120800;28;20181;-87
2022/10/28 15:50:14;;;;;;;6.83;2.30;;;19.60;99.90;;;;;;5120987;28;20172;-84
2022/10/28 15:52:41;;;;;;;14.57;3.03;;;19.50;99.90;;;;;;5120415;28;20204;-86
2022/10/28 15:55:18;;;;;;;18.97;3.23;;;19.50;99.90;;;;;;5121727;28;20250;-85
2022/10/28 15:57:50;;;;;;;10.97;3.13;;;19.20;99.90;;;;;;5120228;28;20169;-85
2022/10/28 16:00:23;;;;;;;19.40;3.20;;;19.10;99.90;;;;;;5121831;28;20171;-86
2022/10/28 16:02:54;;;;;;;22.43;3.13;;;19.10;99.90;;;;;;5121860;28;20201;-85
2022/10/28 16:05:32;;;;;;;12.23;3.10;;;19.00;99.90;;;;;;5120383;28;20618;-86
2022/10/28 16:08:20;;;;;;;5.90;2.90;;;18.80;99.90;;;;;;5120117;28;20567;-83
2022/10/28 16:10:57;;;;;;;10.07;2.87;;;18.60;99.90;;;;;;5119273;28;20252;-85
2022/10/28 16:13:40;;;;;;;13.10;3.20;;;18.50;99.90;;;;;;5116879;28;20246;-84
2022/10/28 16:16:15;;;;;;;9.50;3.10;;;18.50;99.90;;;;;;5119539;28;20207;-84
2022/10/28 16:18:44;;;;;;;8.17;2.97;;;18.40;99.90;;;;;;5119506;28;20165;-84
2022/10/28 16:21:21;;;;;;;10.43;3.50;;;18.20;99.90;;;;;;5119167;28;20524;-85
2022/10/28 16:23:50;;;;;;;7.20;3.30;;;18.20;99.90;;;;;;5119284;28;20185;-86
2022/10/28 16:26:15;;;;;;;7.50;3.40;;;18.20;99.90;;;;;;5118764;28;20173;-84
2022/10/28 16:28:41;;;;;;;9.37;3.80;;;18.10;99.90;;;;;;5119380;28;20689;-84
2022/10/28 16:31:15;;;;;;;7.50;3.53;;;18.10;99.90;;;;;;5123684;28;20191;-85
2022/10/28 16:33:42;;;;;;;12.03;5.20;;;18.00;99.90;;;;;;5119432;28;20206;-84
2022/10/28 16:36:07;;;;;;;12.83;4.67;;;18.00;99.90;;;;;;5119904;28;20171;-83
2022/10/28 16:38:33;;;;;;;11.47;4.77;;;18.00;99.90;;;;;;5119522;28;20529;-85
2022/10/28 16:41:00;;;;;;;13.57;4.67;;;17.80;99.90;;;;;;5121052;28;20176;-84
2022/10/28 16:43:27;;;;;;;9.50;6.03;;;17.80;99.90;;;;;;5119192;28;20218;-84
2022/10/28 16:45:55;;;;;;;15.07;5.63;;;17.70;99.90;;;;;;5119248;28;20178;-85
2022/10/28 16:48:23;;;;;;;13.57;5.90;;;17.60;99.90;;;;;;5117948;28;20180;-86
2022/10/28 16:50:56;;;;;;;11.80;6.03;;;17.50;99.90;;;;;;5118434;28;20557;-85
2022/10/28 16:53:22;;;;;;;13.10;6.57;;;17.50;99.90;;;;;;5120192;28;20585;-84
2022/10/28 16:55:48;;;;;;;13.23;7.23;;;;;;;;;;5120255;28;20179;-84
2022/10/28 16:58:14;;;;;;;10.87;7.50;;;17.40;99.90;;;;;;5118543;28;20612;-85
2022/10/28 17:00:40;;;;;;;14.70;7.10;;;;;;;;;;5120753;28;20167;-85
2022/10/28 17:03:09;;;;;;;11.20;5.87;;;17.30;99.90;;;;;;5120197;28;20255;-84
2022/10/28 17:05:35;;;;;;;12.33;6.27;;;;;;;;;;5118655;28;20253;-85
2022/10/28 17:08:01;;;;;;;13.47;5.70;;;;;;;;;;5120030;28;20206;-84
2022/10/28 17:10:27;;;;;;;10.03;6.30;;;;;;;;;;5119024;28;20240;-85
2022/10/28 17:12:53;;;;;;;14.07;6.27;;;17.20;99.90;;;;;;5120756;28;20277;-84
2022/10/28 17:15:19;;;;;;;10.63;5.00;;;17.20;99.90;;;;;;5119900;28;20584;-86
2022/10/28 17:17:48;;;;;;;11.57;6.40;;;17.20;99.90;;;;;;5119104;28;20171;-82
2022/10/28 17:20:14;;;;;;;12.87;5.50;;;17.10;99.90;;;;;;5120988;28;20177;-85
2022/10/28 17:22:40;;;;;;;13.87;5.03;;;;;;;;;;5121224;28;20204;-85
2022/10/28 17:25:07;;;;;;;30.90;17.63;;;17.00;99.90;;;;;;5121886;28;20181;-85
2022/10/28 17:27:33;;;;;;;22.50;10.83;;;16.90;99.90;;;;;;5122993;28;20180;-82
2022/10/28 17:29:59;;;;;;;10.27;5.73;;;;;;;;;;5120764;28;20184;-84
2022/10/28 17:32:25;;;;;;;8.43;4.57;;;16.80;99.90;;;;;;5121790;28;20279;-84
2022/10/28 17:34:50;;;;;;;7.33;4.00;;;16.90;99.90;;;;;;5122431;28;20232;-84
2022/10/28 17:37:16;;;;;;;7.43;3.80;;;16.80;99.90;;;;;;5120651;28;20180;-83
2022/10/28 17:39:42;;;;;;;5.73;3.50;;;;;;;;;;5120754;28;20187;-83
2022/10/28 17:42:08;;;;;;;10.77;4.10;;;;;;;;;;5121421;28;20195;-82
2022/10/28 17:44:35;;;;;;;6.97;2.97;;;17.00;99.90;;;;;;5123656;28;20183;-81
2022/10/28 17:47:01;;;;;;;8.47;3.27;;;;;;;;;;5122274;28;20178;-84
2022/10/28 17:49:28;;;;;;;8.90;3.13;;;16.90;99.90;;;;;;5120943;28;20196;-84
2022/10/28 17:51:54;;;;;;;5.60;3.23;;;;;;;;;;5120759;28;20196;-83
2022/10/28 17:54:20;;;;;;;6.67;3.03;;;;;;;;;;5120342;28;20297;-83
2022/10/28 17:56:46;;;;;;;12.13;4.07;;;17.00;99.90;;;;;;5120841;28;20172;-84
2022/10/28 17:59:13;;;;;;;12.53;3.80;;;;;;;;;;5119677;28;20631;-84
2022/10/28 18:01:39;;;;;;;9.83;3.50;;;;;;;;;;5119731;28;20595;-85
2022/10/28 18:04:07;;;;;;;6.17;3.47;;;;;;;;;;5120272;28;20230;-88
2022/10/28 18:06:33;;;;;;;8.47;3.60;;;17.10;99.90;;;;;;5119894;28;20183;-84
2022/10/28 18:08:58;;;;;;;8.90;3.70;;;17.00;99.90;;;;;;5123321;28;20191;-86
2022/10/28 18:11:26;;;;;;;9.97;3.33;;;17.00;99.90;;;;;;5121471;28;20524;-84
2022/10/28 18:13:54;;;;;;;8.70;3.80;;;16.90;99.90;;;;;;5119522;28;20235;-85
2022/10/28 18:16:23;;;;;;;6.30;3.40;;;17.00;99.90;;;;;;5120526;28;20193;-85
2022/10/28 18:18:53;;;;;;;6.70;3.30;;;16.90;99.90;;;;;;5120047;28;20168;-85
2022/10/28 18:21:19;;;;;;;7.20;3.57;;;16.90;99.90;;;;;;5123399;28;20205;-84
2022/10/28 18:23:53;;;;;;;6.67;3.40;;;17.00;99.90;;;;;;5120394;28;20171;-85
2022/10/28 18:26:19;;;;;;;10.37;3.23;;;16.90;99.90;;;;;;5120131;28;20155;-83
2022/10/28 18:28:46;;;;;;;9.30;4.17;;;;;;;;;;5119691;27;20186;-84
2022/10/28 18:31:12;;;;;;;6.43;3.57;;;;;;;;;;5118524;28;20198;-83
2022/10/28 18:33:39;;;;;;;10.33;4.97;;;16.50;99.90;;;;;;5118211;28;20203;-84
2022/10/28 18:36:09;;;;;;;6.73;3.80;;;17.00;99.90;;;;;;5118737;28;20175;-85
2022/10/28 18:38:35;;;;;;;11.53;4.40;;;;;;;;;;5119592;28;20251;-85
2022/10/28 18:41:01;;;;;;;10.27;3.90;;;;;;;;;;5120111;28;20181;-83
2022/10/28 18:43:27;;;;;;;7.63;3.70;;;;;;;;;;5118564;28;20184;-83
2022/10/28 18:45:54;;;;;;;16.00;4.30;;;;;;;;;;5118666;28;20200;-84
2022/10/28 18:48:19;;;;;;;8.63;3.80;;;16.80;99.90;;;;;;5117739;28;20181;-84
2022/10/28 18:50:55;;;;;;;9.17;4.37;;;16.70;99.90;;;;;;5119893;28;20173;-85
2022/10/28 18:53:21;;;;;;;9.87;3.97;;;16.50;99.90;;;;;;5117881;28;20211;-86
2022/10/28 18:55:47;;;;;;;8.63;4.23;;;;;;;;;;5119357;28;20184;-84
2022/10/28 18:58:14;;;;;;;9.43;4.17;;;;;;;;;;5118983;28;20198;-84
2022/10/28 19:00:40;;;;;;;15.30;4.43;;;;;;;;;;5120278;28;20170;-84
2022/10/28 19:03:07;;;;;;;6.93;3.40;;;;;;;;;;5119024;28;20724;-84
2022/10/28 19:05:33;;;;;;;12.60;3.90;;;;;;;;;;5118686;28;20210;-84
2022/10/28 19:07:59;;;;;;;11.87;3.50;;;;;;;;;;5118939;28;20180;-85
2022/10/28 19:10:25;;;;;;;12.13;3.83;;;;;;;;;;5121074;28;20269;-83
2022/10/28 19:12:51;;;;;;;14.30;3.40;;;;;;;;;;5118701;28;20198;-83
2022/10/28 19:15:17;;;;;;;12.57;3.73;;;;;;;;;;5118594;28;20192;-85
2022/10/28 19:17:43;;;;;;;14.83;3.83;;;;;;;;;;5118963;28;20230;-83
2022/10/28 19:20:09;;;;;;;9.53;3.10;;;;;;;;;;5119186;28;20179;-84
2022/10/28 19:22:35;;;;;;;8.70;3.47;;;;;;;;;;5119564;28;20207;-84
2022/10/28 19:25:01;;;;;;;14.47;3.03;;;16.80;99.90;;;;;;5119220;28;20185;-86
2022/10/28 19:27:27;;;;;;;9.40;3.17;;;;;;;;;;5119996;28;20207;-85
2022/10/28 19:29:54;;;;;;;10.20;3.00;;;;;;;;;;5119472;28;20187;-84
2022/10/28 19:32:20;;;;;;;8.70;3.10;;;;;;;;;;5120900;28;20196;-84
2022/10/28 19:34:46;;;;;;;8.63;2.90;;;;;;;;;;5119718;28;20212;-83
2022/10/28 19:37:12;;;;;;;4.53;2.63;;;;;;;;;;5121207;28;20184;-86
2022/10/28 19:39:37;;;;;;;7.50;3.63;;;16.50;99.90;;;;;;5121269;28;20200;-84
2022/10/28 19:42:03;;;;;;;6.07;2.97;;;;;;;;;;5119272;28;20199;-83
2022/10/28 19:44:29;;;;;;;10.03;3.13;;;16.30;99.90;;;;;;5119135;28;20175;-84
2022/10/28 19:46:55;;;;;;;9.57;3.57;;;;;;;;;;5119652;28;20176;-83
2022/10/28 19:49:21;;;;;;;9.63;3.63;;;;;;;;;;5120592;28;20988;-84
2022/10/28 19:51:47;;;;;;;9.30;3.13;;;;;;;;;;5119170;28;20299;-84
2022/10/28 19:54:14;;;;;;;11.93;3.10;;;;;;;;;;5118242;28;20638;-82
2022/10/28 19:56:46;;;;;;;10.90;3.43;;;;;;;;;;5118215;28;20545;-84
2022/10/28 19:59:11;;;;;;;11.80;3.43;;;16.20;99.90;;;;;;5118940;28;20294;-84
2022/10/28 20:01:38;;;;;;;10.07;3.73;;;16.20;99.90;;;;;;5121793;28;20216;-85